Latest Weather Observations for Geelong Racecourse

IDV60801

Issued at 6:05 pm EST Thursday 2 October 2014 (issued every 30 minutes, with the page automatically refreshed every 10 minutes)

About weather observations | Map of weather stations | Latest weather observations for VIC | Other Formats
Station Details ID: 087184 Name: GEELONG RACECOURSE Lat: -38.17 Lon: 144.38 Height: 12.9 m
Data from the previous 72 hours. | See also: Recent months at Geelong Racecourse
Date/Time
EST
Temp
°C
App
Temp
°C
Dew
Point
Rel
Hum
%
Delta-T
°C
Wind Press
QNH
hPa
Press
MSL
hPa
Rain
since 9 am
mm
Dir
 
Spd
km/h
Gust
km/h
Spd
kts
Gust
kts
02/06:00pm 14.2 11.2 10.6 79 1.9 SSW 17 22 9 12 1023.5 1023.5 0.0
02/05:30pm 15.1 12.4 10.3 73 2.5 S 15 22 8 12 1023.2 1023.2 0.0
02/05:00pm 16.6 12.7 8.6 59 4.1 WSW 19 30 10 16 1023.0 1023.0 0.0
02/04:30pm 16.9 12.7 8.3 57 4.4 WSW 20 28 11 15 1022.7 1022.7 0.0
02/04:00pm 17.8 13.3 8.6 55 4.7 W 22 32 12 17 1022.8 1022.8 0.0
02/03:30pm 17.9 13.8 8.7 55 4.8 W 20 30 11 16 1022.8 1022.8 0.0
02/03:00pm 17.1 12.5 8.3 56 4.5 W 22 32 12 17 1022.9 1022.9 0.0
02/02:30pm 18.5 13.7 8.7 53 5.1 W 24 37 13 20 1022.8 1022.8 0.0
02/02:00pm 18.1 13.3 8.7 54 4.8 W 24 35 13 19 1023.0 1023.0 0.0
02/01:30pm 16.7 11.9 8.7 59 4.1 W 24 33 13 18 1023.3 1023.3 0.0
02/01:00pm 17.7 13.3 9.1 57 4.5 W 22 32 12 17 1023.3 1023.3 0.0
02/12:30pm 16.8 11.8 9.5 62 3.8 W 26 39 14 21 1023.6 1023.6 0.0
02/12:00pm 15.8 11.0 9.0 64 3.5 W 24 35 13 19 1023.8 1023.8 0.0
02/11:30am 16.1 11.4 9.1 63 3.6 WSW 24 32 13 17 1023.8 1023.8 0.0
02/11:00am 15.2 11.3 9.6 69 2.9 W 20 32 11 17 1024.0 1024.0 0.0
02/10:30am 15.0 11.0 8.9 67 3.1 W 20 33 11 18 1024.0 1024.0 0.0
02/10:00am 13.7 8.9 9.0 73 2.4 WNW 24 32 13 17 1024.1 1024.1 0.0
02/09:30am 13.7 9.7 9.2 74 2.3 W 20 32 11 17 1024.3 1024.3 0.0
02/09:00am 13.3 10.0 9.5 78 1.9 W 17 26 9 14 1024.3 1024.3 0.2
02/08:30am 12.6 9.6 10.7 88 1.0 W 17 30 9 16 1024.3 1024.3 0.2
02/08:00am 11.8 9.1 10.5 92 0.7 W 15 24 8 13 1023.9 1023.9 0.2
02/07:30am 11.0 8.6 9.9 93 0.6 WNW 13 20 7 11 1023.7 1023.7 0.2
02/07:00am 10.4 7.8 9.3 93 0.5 WNW 13 20 7 11 1023.7 1023.7 0.2
02/06:30am 10.0 7.7 8.9 93 0.5 WNW 11 19 6 10 1023.6 1023.6 0.2
02/06:00am 9.6 7.6 8.5 93 0.5 WNW 9 15 5 8 1023.4 1023.4 0.2
02/05:30am 9.7 7.7 8.6 93 0.5 WNW 9 15 5 8 1023.4 1023.4 0.2
02/05:00am 9.4 7.3 8.3 93 0.5 WNW 9 13 5 7 1023.4 1023.4 0.2
02/04:30am 9.6 7.6 8.5 93 0.5 WNW 9 13 5 7 1023.4 1023.4 0.2
02/04:00am 9.6 7.5 8.4 92 0.6 W 9 13 5 7 1023.4 1023.4 0.2
02/03:30am 9.6 7.5 8.4 92 0.6 W 9 17 5 9 1023.5 1023.5 0.2
02/03:00am 9.5 7.7 8.1 91 0.7 W 7 13 4 7 1023.6 1023.6 0.2
02/02:30am 9.6 7.9 7.7 88 0.9 WNW 6 9 3 5 1023.7 1023.7 0.2
02/02:00am 9.3 7.7 8.1 92 0.6 NW 6 9 3 5 1024.1 1024.1 0.2
02/01:30am 9.0 7.7 7.8 92 0.6 WNW 4 7 2 4 1024.3 1024.3 0.2
02/01:00am 8.8 6.9 7.6 92 0.6 WNW 7 11 4 6 1024.5 1024.5 0.2
02/12:30am 8.4 5.7 7.2 92 0.6 WNW 11 15 6 8 1024.5 1024.5 0.2
02/12:00am 8.5 6.1 7.1 91 0.7 WNW 9 13 5 7 1024.7 1024.7 0.2
 
Date/Time
EST
Temp
°C
App
Temp
°C
Dew
Point
Rel
Hum
%
Delta-T
°C
Wind Press
QNH
hPa
Press
MSL
hPa
Rain
since 9 am
mm
Dir
 
Spd
km/h
Gust
km/h
Spd
kts
Gust
kts
01/11:30pm 8.5 6.5 7.1 91 0.7 NW 7 9 4 5 1025.0 1025.0 0.2
01/11:00pm 8.1 6.1 6.2 88 0.9 NW 6 7 3 4 1025.1 1025.1 0.2
01/10:30pm 8.1 6.1 6.1 87 0.9 WNW 6 7 3 4 1025.2 1025.2 0.2
01/10:00pm 8.6 6.6 6.1 84 1.1 WNW 6 9 3 5 1025.3 1025.3 0.2
01/09:30pm 8.9 6.6 5.8 81 1.4 W 7 9 4 5 1025.6 1025.6 0.2
01/09:00pm 9.4 7.2 6.1 80 1.5 W 7 13 4 7 1025.5 1025.5 0.2
01/08:30pm 9.6 6.9 5.4 75 1.9 W 9 13 5 7 1025.3 1025.3 0.2
01/08:00pm 10.2 7.1 5.6 73 2.1 W 11 15 6 8 1025.3 1025.3 0.2
01/07:30pm 10.1 7.2 4.9 70 2.3 WSW 9 11 5 6 1025.1 1025.1 0.2
01/07:00pm 10.8 7.6 4.9 67 2.7 W 11 19 6 10 1024.7 1024.7 0.2
01/06:30pm 11.4 7.8 5.1 65 2.9 W 13 19 7 10 1024.5 1024.5 0.2
01/06:00pm 12.6 8.4 5.5 62 3.3 W 17 26 9 14 1024.4 1024.4 0.2
01/05:30pm 13.7 10.2 5.3 57 3.9 WSW 13 20 7 11 1024.1 1024.1 0.2
01/05:00pm 14.4 9.7 5.0 53 4.4 WSW 19 30 10 16 1024.0 1024.0 0.2
01/04:30pm 13.6 8.7 5.3 57 3.9 WSW 20 30 11 16 1023.8 1023.8 0.2
01/04:00pm 15.1 9.7 4.5 49 4.9 W 22 33 12 18 1023.8 1023.8 0.2
01/03:30pm 14.8 9.6 5.6 54 4.4 WSW 22 35 12 19 1023.7 1023.7 0.2
01/03:00pm 14.8 11.3 7.1 60 3.8 SW 15 24 8 13 1023.6 1023.6 0.2
01/02:30pm 13.0 8.6 7.5 69 2.7 SSW 20 32 11 17 1024.0 1024.0 0.2
01/02:21pm 12.9 6.4 6.7 66 3.0 S 30 41 16 22 1024.1 1024.1 0.2
01/02:19pm 13.6 5.8 6.7 63 3.3 SW 37 48 20 26 1024.1 1024.1 0.2
01/02:00pm 14.8 10.3 5.9 55 4.2 W 19 32 10 17 1023.8 1023.8 0.2
01/01:30pm 13.4 10.5 6.7 64 3.2 SSW 11 17 6 9 1023.8 1023.8 0.2
01/01:00pm 12.5 8.8 9.5 82 1.5 S 19 26 10 14 1024.3 1024.3 0.2
01/12:30pm 14.1 12.3 9.3 73 2.5 WNW 9 17 5 9 1024.3 1024.3 0.2
01/12:00pm 12.4 10.0 10.1 86 1.2 WSW 13 19 7 10 1024.2 1024.2 0.2
01/11:30am 11.1 7.3 7.6 79 1.7 SSW 17 20 9 11 1024.4 1024.4 0.0
01/11:00am 11.5 6.7 5.8 68 2.6 SW 20 26 11 14 1024.2 1024.2 0.0
01/10:30am 14.3 9.5 5.4 55 4.2 WSW 20 32 11 17 1023.9 1023.9 0.0
01/10:00am 13.4 8.8 6.5 63 3.3 W 20 28 11 15 1023.7 1023.7 0.0
01/09:30am 12.5 8.6 7.2 70 2.6 W 17 26 9 14 1023.6 1023.6 0.0
01/09:00am 11.6 8.1 7.1 74 2.1 W 15 22 8 12 1023.1 1023.1 5.0
01/08:30am 9.8 6.1 6.5 80 1.5 W 15 24 8 13 1022.6 1022.6 5.0
01/08:00am 8.4 4.3 6.2 86 1.0 WNW 17 26 9 14 1022.0 1022.0 5.0
01/07:30am 7.3 3.9 5.9 91 0.6 WNW 13 22 7 12 1021.6 1021.6 5.0
01/07:00am 6.3 2.7 5.1 92 0.5 WNW 13 19 7 10 1021.1 1021.1 5.0
01/06:30am 5.7 2.8 4.5 92 0.5 WNW 9 19 5 10 1020.7 1020.7 5.0
01/06:00am 5.3 2.3 4.3 93 0.4 WNW 9 15 5 8 1020.0 1020.0 5.0
01/05:30am 5.3 1.6 4.3 93 0.4 WNW 13 19 7 10 1019.6 1019.6 5.0
01/05:00am 5.2 1.5 4.2 93 0.4 WNW 13 19 7 10 1019.1 1019.1 5.0
01/04:30am 5.3 1.5 4.1 92 0.5 NW 13 17 7 9 1018.8 1018.8 5.0
01/04:00am 5.7 2.4 4.5 92 0.5 WNW 11 20 6 11 1018.3 1018.3 5.0
01/03:30am 5.8 2.4 4.1 89 0.7 WNW 11 19 6 10 1018.0 1018.0 5.0
01/03:00am 6.4 2.6 3.9 84 1.1 W 13 20 7 11 1017.6 1017.6 5.0
01/02:30am 6.6 2.2 4.6 87 0.9 W 17 22 9 12 1017.3 1017.3 5.0
01/02:00am 6.8 2.4 5.0 88 0.8 W 17 26 9 14 1016.9 1016.9 5.0
01/01:30am 6.4 2.4 4.9 90 0.7 WNW 15 24 8 13 1016.8 1016.8 5.0
01/01:00am 6.5 2.1 5.0 90 0.7 W 17 26 9 14 1016.5 1016.5 5.0
01/12:30am 6.8 2.1 5.0 88 0.8 W 19 28 10 15 1016.0 1016.0 5.0
01/12:00am 7.2 1.2 5.2 87 0.9 W 26 41 14 22 1015.4 1015.4 5.0
 
Date/Time
EST
Temp
°C
App
Temp
°C
Dew
Point
Rel
Hum
%
Delta-T
°C
Wind Press
QNH
hPa
Press
MSL
hPa
Rain
since 9 am
mm
Dir
 
Spd
km/h
Gust
km/h
Spd
kts
Gust
kts
30/11:30pm 7.0 1.7 5.0 87 0.9 WNW 22 32 12 17 1014.8 1014.8 5.0
30/11:00pm 6.9 2.0 4.9 87 0.9 WNW 20 30 11 16 1014.6 1014.6 4.8
30/10:30pm 7.3 1.9 4.6 83 1.2 WNW 22 35 12 19 1014.5 1014.5 4.6
30/10:00pm 7.3 0.9 5.0 85 1.0 W 28 41 15 22 1014.2 1014.2 4.6
30/09:49pm 8.1 0.3 4.7 79 1.5 W 35 56 19 30 1014.4 1014.4 4.4
30/09:47pm 8.3 -0.4 4.3 76 1.7 W 39 56 21 30 1014.2 1014.2 4.2
30/09:30pm 8.2 3.4 4.8 79 1.5 WNW 19 28 10 15 1013.4 1013.4 4.2
30/09:00pm 8.3 4.5 5.6 83 1.2 WNW 15 24 8 13 1012.8 1012.8 4.2
30/08:30pm 8.1 4.5 6.6 90 0.7 WNW 15 22 8 12 1012.6 1012.6 4.2
30/08:00pm 7.7 4.8 6.5 92 0.5 WSW 11 17 6 9 1012.3 1012.3 4.2
30/07:30pm 7.9 3.3 6.7 92 0.6 W 20 28 11 15 1011.9 1011.9 4.0
30/07:06pm 8.7 0.8 6.3 85 1.1 WSW 37 44 20 24 1011.6 1011.6 3.6
30/07:00pm 9.2 5.0 5.8 79 1.6 WNW 17 32 9 17 1011.3 1011.3 2.8
30/06:30pm 9.3 4.4 4.9 74 2.0 WNW 20 30 11 16 1010.2 1010.2 2.8
30/06:00pm 9.4 4.1 5.2 75 1.9 W 22 39 12 21 1010.0 1010.0 2.8
30/05:52pm 9.5 3.6 5.7 77 1.7 W 26 39 14 21 1010.0 1010.0 2.8
30/05:35pm 9.8 0.2 6.2 78 1.7 WSW 46 69 25 37 1010.2 1010.2 2.8
30/05:34pm 10.5 0.2 6.5 76 1.9 SW 50 69 27 37 1010.2 1010.2 2.8
30/05:30pm 11.3 6.7 8.2 81 1.5 W 22 37 12 20 1009.6 1009.6 2.6
30/05:00pm 12.4 7.3 7.5 72 2.4 WNW 24 37 13 20 1008.2 1008.2 2.4
30/04:30pm 11.5 7.0 7.0 74 2.1 WNW 20 32 11 17 1007.9 1007.9 2.4
30/04:00pm 10.3 5.3 6.6 78 1.7 WNW 22 33 12 18 1007.7 1007.7 2.2
30/03:30pm 10.6 2.4 8.2 85 1.2 W 41 65 22 35 1007.8 1007.8 1.8
30/03:00pm 11.5 4.2 10.2 92 0.7 W 39 63 21 34 1006.3 1006.3 1.6
30/02:30pm 13.0 6.1 11.7 92 0.7 W 39 69 21 37 1004.7 1004.7 0.8
30/02:15pm 14.3 6.5 13.0 92 0.7 W 46 78 25 42 1004.1 1004.1 0.6
30/02:09pm 15.7 8.6 10.9 73 2.6 W 39 59 21 32 1003.9 1003.9 0.2
30/02:07pm 16.6 9.6 10.0 65 3.5 W 37 54 20 29 1003.5 1003.5 0.0
30/02:00pm 20.3 12.5 6.6 41 6.9 NW 37 63 20 34 1001.9 1001.9 0.0
30/01:30pm 21.6 13.5 5.1 34 8.2 NW 37 61 20 33 1001.5 1001.5 0.0
30/01:05pm 22.1 14.6 6.3 36 8.0 NW 35 56 19 30 1001.9 1001.9 0.0
30/01:00pm 22.3 14.2 6.9 37 7.9 NNW 39 56 21 30 1002.0 1002.0 0.0
30/12:30pm 21.4 13.7 6.9 39 7.4 NNW 37 57 20 31 1002.9 1002.9 0.0
30/12:04pm 20.2 12.2 7.6 44 6.5 NNW 39 59 21 32 1003.8 1003.8 0.0
30/12:00pm 20.3 12.0 7.7 44 6.5 NNW 41 59 22 32 1003.7 1003.7 0.0
30/11:35am 20.9 13.4 7.9 43 6.7 NNW 37 56 20 30 1004.1 1004.1 0.0
30/11:30am 21.1 13.6 8.0 43 6.8 NNW 37 52 20 28 1004.2 1004.2 0.0
30/11:02am 21.0 14.2 7.6 42 6.9 NNW 33 54 18 29 1004.8 1004.8 0.0
30/11:00am 21.0 14.5 8.0 43 6.8 NNW 32 46 17 25 1004.9 1004.9 0.0
30/10:30am 20.5 13.2 7.2 42 6.8 NW 35 57 19 31 1005.4 1005.4 0.0
30/10:00am 20.2 13.5 7.2 43 6.6 NNW 32 50 17 27 1005.8 1005.8 0.0
30/09:47am 19.8 13.8 6.9 43 6.5 NNW 28 50 15 27 1006.0 1006.0 0.0
30/09:30am 19.6 14.1 7.7 46 6.1 NNW 26 41 14 22 1006.4 1006.4 0.0
30/09:00am 17.8 13.8 8.4 54 4.8 N 19 30 10 16 1007.0 1007.0 0.0
30/08:30am 17.5 14.1 9.2 58 4.3 N 17 26 9 14 1007.5 1007.5 0.0
30/08:00am 14.9 12.0 9.5 70 2.8 NNE 15 20 8 11 1008.0 1008.0 0.0
30/07:30am 13.6 10.6 9.1 74 2.3 N 15 22 8 12 1008.2 1008.2 0.0
30/07:00am 12.5 10.2 9.1 80 1.7 N 11 22 6 12 1008.8 1008.8 0.0
30/06:30am 10.1 8.5 8.9 92 0.6 N 7 9 4 5 1009.2 1009.2 0.0
30/06:00am 9.1 7.5 7.9 92 0.6 NW 6 9 3 5 1009.2 1009.2 0.0
30/05:30am 9.3 7.7 8.2 93 0.5 NNW 6 6 3 3 1009.1 1009.1 0.0
30/05:00am 9.1 7.9 8.0 93 0.5 WNW 4 4 2 2 1009.1 1009.1 0.0
30/04:30am 9.4 7.8 8.2 92 0.6 NW 6 7 3 4 1008.6 1008.6 0.0
30/04:00am 10.0 9.0 8.8 92 0.6 N 4 6 2 3 1008.6 1008.6 0.0
30/03:30am 10.1 9.1 8.9 92 0.6 NNW 4 4 2 2 1009.0 1009.0 0.0
30/03:00am 10.2 8.8 9.0 92 0.6 NNW 6 7 3 4 1009.4 1009.4 0.0
30/02:30am 10.7 9.9 9.5 92 0.6 NNW 4 6 2 3 1009.7 1009.7 0.0
30/02:00am 10.9 9.5 9.7 92 0.6 NNW 7 7 4 4 1010.2 1010.2 0.0
30/01:30am 11.4 10.8 10.3 93 0.6 NW 4 6 2 3 1010.4 1010.4 0.0
30/01:00am 12.2 12.6 11.1 93 0.6 CALM 0 0 0 0 1010.9 1010.9 0.0
30/12:30am 12.6 13.1 11.5 93 0.6 CALM 0 0 0 0 1011.3 1011.3 0.0
30/12:00am 12.8 12.9 11.5 92 0.7 SSW 2 6 1 3 1011.4 1011.4 0.0
 
Date/Time
EST
Temp
°C
App
Temp
°C
Dew
Point
Rel
Hum
%
Delta-T
°C
Wind Press
QNH
hPa
Press
MSL
hPa
Rain
since 9 am
mm
Dir
 
Spd
km/h
Gust
km/h
Spd
kts
Gust
kts
29/11:30pm 13.0 12.2 11.7 92 0.7 S 7 9 4 5 1011.5 1011.5 0.0
29/11:00pm 13.0 11.8 11.7 92 0.7 S 9 13 5 7 1011.7 1011.7 0.0
29/10:30pm 13.2 11.7 8.3 72 2.4 SSE 6 9 3 5 1011.7 1011.7 0.0
29/10:00pm 13.3 12.7 7.3 67 2.9 CALM 0 2 0 1 1011.5 1011.5 0.0
29/09:30pm 13.5 11.6 6.8 64 3.2 WSW 6 9 3 5 1011.3 1011.3 0.0
29/09:00pm 14.6 14.0 7.2 61 3.6 CALM 0 2 0 1 1011.2 1011.2 0.0
29/08:30pm 15.7 13.8 6.7 55 4.4 N 6 7 3 4 1011.2 1011.2 0.0
29/08:00pm 15.8 14.4 7.1 56 4.3 NNW 4 4 2 2 1011.0 1011.0 0.0
29/07:30pm 17.2 15.4 7.0 51 5.1 NNW 6 7 3 4 1010.8 1010.8 0.0
29/07:00pm 18.3 16.2 6.5 46 5.9 NW 7 9 4 5 1010.6 1010.6 0.0
29/06:30pm 19.6 16.8 7.0 44 6.4 NNW 11 17 6 9 1010.3 1010.3 0.0

Other Formats:

Comma delimited format used in spreadsheet applications
http://www.bom.gov.au/fwo/IDV60801/IDV60801.94857.axf

JavaScript Object Notation format (JSON) in row-major order
http://www.bom.gov.au/fwo/IDV60801/IDV60801.94857.json